首页
METAR-TAF:

METAR-TAF

机场 :

Weipa, 澳大利亚

纬度: 12-40-43S, 经度: 141-55-31E, 海拔: 19米

当前天气观测

该预报发布于18分钟前的00:50 UTC
风速17节,风向西北,有时为27节阵风,在西南西北之间变化
温度 26°C
湿度 79%
气压 1007 hPa
能見度: 4300
散云层高于1100英尺
散云层高于2400英尺
多云层高于3300英尺
阵雨

METAR: YBWP 110050Z AUTO 31017G27KT 220V310 4300 SHRA SCT011 SCT024 BKN033 26/22 Q1007

时间: 11:08 (01:08 UTC)


TAF: 丢失

超过4000个机场的气象观测和天气预报(METAR&TAF报告)。

可查询的气象台以黄色和红色小点在地图上表示。

将鼠标移到小点上方,可查看气象台名称。

然后点击查看天气观测和预报。

如需切换地图:点击带黑十字的绿色按钮放大地图;点击带横线的绿色按钮缩小地图;或者点击绿色箭头查看邻近地区的地图。


METAR-TAF: